Time;durP1;ratioP1;P1;durP2;ratioP2;P2;SDS_P1;SDS_P2;PMS_P1;PMS_P2;Temp;Humidity;BMP_temperature;BMP_pressure;BME280_temperature;BME280_humidity;BME280_pressure;Samples;Min_cycle;Max_cycle;Signal;HPM_P1;HPM_P2
2022/09/02 00:01:18;;;;;;;1999.90;999.90;;;20.70;31.10;;;;;;5049394;28;20433;-71
2022/09/02 00:03:44;;;;;;;1999.90;999.90;;;20.70;31.20;;;;;;5049758;28;20407;-71
2022/09/02 00:06:10;;;;;;;1999.90;999.90;;;20.70;31.30;;;;;;5047426;28;20400;-72
2022/09/02 00:08:36;;;;;;;1999.90;999.90;;;20.60;31.40;;;;;;5049054;28;20485;-72
2022/09/02 00:11:04;;;;;;;1999.90;999.90;;;20.60;31.70;;;;;;5049348;28;20197;-71
2022/09/02 00:13:31;;;;;;;1999.90;999.90;;;20.60;31.80;;;;;;5047851;28;20390;-72
2022/09/02 00:15:56;;;;;;;1999.90;999.90;;;20.50;32.10;;;;;;5046871;28;20406;-71
2022/09/02 00:18:23;;;;;;;1999.90;999.90;;;20.50;32.30;;;;;;5047377;28;20419;-71
2022/09/02 00:20:49;;;;;;;1999.90;999.90;;;20.50;32.50;;;;;;5046670;28;20182;-71
2022/09/02 00:23:15;;;;;;;1999.90;999.90;;;20.40;32.60;;;;;;5047403;28;20928;-71
2022/09/02 00:25:43;;;;;;;1999.90;999.90;;;20.40;32.80;;;;;;5045788;28;20405;-72
2022/09/02 00:28:11;;;;;;;1999.90;999.90;;;20.40;33.20;;;;;;5045475;28;20455;-72
2022/09/02 00:30:37;;;;;;;1999.90;999.90;;;20.40;33.30;;;;;;5044726;28;20458;-71
2022/09/02 00:33:03;;;;;;;1999.90;999.90;;;20.30;33.50;;;;;;5046315;28;20414;-72
2022/09/02 00:35:30;;;;;;;1999.90;999.90;;;20.30;33.90;;;;;;5046230;28;20408;-71
2022/09/02 00:37:55;;;;;;;1999.90;999.90;;;20.30;33.90;;;;;;5045065;28;20550;-72
2022/09/02 00:40:22;;;;;;;1999.90;999.90;;;20.30;34.20;;;;;;5046156;28;20394;-72
2022/09/02 00:42:48;;;;;;;1999.90;999.90;;;20.20;34.30;;;;;;5045337;28;20183;-72
2022/09/02 00:45:14;;;;;;;1999.90;999.90;;;20.20;34.70;;;;;;5046306;28;20406;-72
2022/09/02 00:47:40;;;;;;;1999.90;999.90;;;20.20;34.60;;;;;;5046064;28;20431;-71
2022/09/02 00:50:09;;;;;;;1999.90;999.90;;;20.20;35.00;;;;;;5045549;28;20537;-71
2022/09/02 00:52:43;;;;;;;1999.90;999.90;;;20.20;35.00;;;;;;5045856;28;20699;-71
2022/09/02 00:55:16;;;;;;;1999.90;999.90;;;20.20;35.30;;;;;;5045550;28;20412;-72
2022/09/02 00:57:47;;;;;;;1999.90;999.90;;;20.20;35.30;;;;;;5044180;28;20437;-71
2022/09/02 01:00:29;;;;;;;1999.90;999.90;;;20.10;35.50;;;;;;5045550;28;20896;-71
2022/09/02 01:02:58;;;;;;;1999.90;999.90;;;20.10;35.60;;;;;;5045026;28;20421;-71
2022/09/02 01:05:28;;;;;;;1999.90;999.90;;;20.10;35.80;;;;;;5044356;28;20398;-72
2022/09/02 01:07:55;;;;;;;1999.90;999.90;;;20.10;36.10;;;;;;5043534;28;20439;-72
2022/09/02 01:10:34;;;;;;;1999.90;999.90;;;20.10;36.30;;;;;;5043133;28;20471;-72
2022/09/02 01:13:06;;;;;;;1999.90;999.90;;;20.10;36.60;;;;;;5045608;28;20449;-72
2022/09/02 01:15:38;;;;;;;1999.90;999.90;;;20.00;36.50;;;;;;5043145;28;20391;-71
2022/09/02 01:18:06;;;;;;;1999.90;999.90;;;20.00;37.20;;;;;;5041987;28;20453;-72
2022/09/02 01:20:33;;;;;;;1999.90;999.90;;;20.00;37.40;;;;;;5042012;28;20423;-72
2022/09/02 01:22:59;;;;;;;1999.90;999.90;;;20.00;37.70;;;;;;5041496;28;20410;-71
2022/09/02 01:25:29;;;;;;;1999.90;999.90;;;20.00;37.80;;;;;;5040781;28;20435;-72
2022/09/02 01:28:00;;;;;;;1999.90;999.90;;;20.00;37.80;;;;;;5039877;28;20952;-71
2022/09/02 01:30:26;;;;;;;1999.90;999.90;;;20.00;38.30;;;;;;5039329;28;20456;-71
2022/09/02 01:32:52;;;;;;;1999.90;999.90;;;20.00;38.40;;;;;;5040114;28;20430;-72
2022/09/02 01:35:18;;;;;;;1999.90;999.90;;;20.00;38.40;;;;;;5038659;28;20474;-72
2022/09/02 01:37:45;;;;;;;1999.90;999.90;;;19.90;38.60;;;;;;5039903;28;20445;-71
2022/09/02 01:40:14;;;;;;;1999.90;999.90;;;19.90;38.80;;;;;;5040703;28;20408;-72
2022/09/02 01:42:41;;;;;;;1999.90;999.90;;;19.90;39.10;;;;;;5039101;28;20410;-71
2022/09/02 01:45:08;;;;;;;1999.90;999.90;;;19.90;39.30;;;;;;5038533;28;20401;-72
2022/09/02 01:47:35;;;;;;;1999.90;999.90;;;19.80;39.20;;;;;;5039057;28;20428;-71
2022/09/02 01:50:01;;;;;;;1999.90;999.90;;;19.80;39.70;;;;;;5039530;28;20458;-71
2022/09/02 01:52:28;;;;;;;1999.90;999.90;;;19.70;39.90;;;;;;5040093;28;20410;-71
2022/09/02 01:54:54;;;;;;;1999.90;999.90;;;19.70;40.30;;;;;;5040096;28;20476;-72
2022/09/02 01:57:22;;;;;;;1999.90;999.90;;;19.70;40.70;;;;;;5021423;28;20441;-71
2022/09/02 01:59:47;;;;;;;1999.90;999.90;;;19.60;40.90;;;;;;5040014;28;20419;-71
2022/09/02 02:02:13;;;;;;;1999.90;999.90;;;19.60;41.30;;;;;;5039511;28;20427;-71
2022/09/02 02:04:39;;;;;;;1999.90;999.90;;;19.60;41.70;;;;;;5038994;28;20173;-71
2022/09/02 02:07:05;;;;;;;1999.90;999.90;;;19.50;42.20;;;;;;5042513;28;20184;-72
2022/09/02 02:09:31;;;;;;;1999.90;999.90;;;19.50;42.70;;;;;;5026266;28;20198;-71
2022/09/02 02:11:56;;;;;;;1999.90;999.90;;;19.40;42.80;;;;;;5042919;28;20401;-71
2022/09/02 02:14:22;;;;;;;1999.90;999.90;;;19.30;43.50;;;;;;5042163;28;20170;-72
2022/09/02 02:16:49;;;;;;;1999.90;999.90;;;19.40;44.00;;;;;;5040622;28;20172;-71
2022/09/02 02:19:14;;;;;;;1999.90;999.90;;;19.30;44.70;;;;;;5039043;28;20226;-71
2022/09/02 02:21:40;;;;;;;1999.90;999.90;;;19.30;45.50;;;;;;5039219;28;20411;-71
2022/09/02 02:24:07;;;;;;;1999.90;999.90;;;19.20;45.80;;;;;;5038729;28;20187;-71
2022/09/02 02:26:34;;;;;;;1999.90;999.90;;;19.30;46.00;;;;;;5038230;28;20411;-71
2022/09/02 02:28:59;;;;;;;1999.90;999.90;;;19.30;46.00;;;;;;5039002;28;20504;-72
2022/09/02 02:31:25;;;;;;;1999.90;999.90;;;19.20;46.40;;;;;;5039214;28;20442;-72
2022/09/02 02:33:51;;;;;;;1999.90;999.90;;;19.20;46.80;;;;;;5039715;28;20228;-71
2022/09/02 02:36:18;;;;;;;1999.90;999.90;;;19.20;47.10;;;;;;5038787;28;20171;-71
2022/09/02 02:38:45;;;;;;;1999.90;999.90;;;19.20;47.30;;;;;;5039355;28;20418;-71
2022/09/02 02:41:12;;;;;;;1999.90;999.90;;;19.20;47.70;;;;;;5039385;28;20417;-71
2022/09/02 02:43:38;;;;;;;1999.90;999.90;;;19.10;48.00;;;;;;5038394;28;20431;-71
2022/09/02 02:46:05;;;;;;;1999.90;999.90;;;19.10;48.50;;;;;;5037039;28;20483;-71
2022/09/02 02:48:32;;;;;;;1999.90;999.90;;;19.00;49.50;;;;;;5037805;28;20192;-71
2022/09/02 02:50:58;;;;;;;1999.90;999.90;;;19.00;49.50;;;;;;5020334;28;20870;-71
2022/09/02 02:53:24;;;;;;;1999.90;999.90;;;19.00;50.00;;;;;;5038248;28;20403;-71
2022/09/02 02:55:50;;;;;;;1999.90;999.90;;;18.90;50.00;;;;;;5038732;28;20167;-72
2022/09/02 02:58:17;;;;;;;1999.90;999.90;;;19.00;50.60;;;;;;5038290;28;20930;-71
2022/09/02 03:00:45;;;;;;;1999.90;999.90;;;19.00;51.00;;;;;;5038990;28;20414;-72
2022/09/02 03:03:11;;;;;;;1999.90;999.90;;;18.90;51.30;;;;;;5038415;28;20411;-71
2022/09/02 03:05:38;;;;;;;1999.90;999.90;;;18.90;51.50;;;;;;5038863;28;20446;-71
2022/09/02 03:08:05;;;;;;;1999.90;999.90;;;18.80;51.70;;;;;;5037862;28;20434;-71
2022/09/02 03:10:32;;;;;;;1999.90;999.90;;;18.80;52.20;;;;;;5038528;28;20523;-72
2022/09/02 03:13:01;;;;;;;1999.90;999.90;;;18.80;52.80;;;;;;5039205;28;20417;-71
2022/09/02 03:15:28;;;;;;;1999.90;999.90;;;18.80;53.00;;;;;;5038638;28;20432;-71
2022/09/02 03:17:54;;;;;;;1999.90;999.90;;;18.80;53.30;;;;;;5037622;28;20424;-71
2022/09/02 03:20:21;;;;;;;1999.90;999.90;;;18.70;53.90;;;;;;5037683;28;20419;-71
2022/09/02 03:22:48;;;;;;;1999.90;999.90;;;18.70;54.20;;;;;;5038881;28;20439;-71
2022/09/02 03:25:16;;;;;;;1999.90;999.90;;;18.60;54.40;;;;;;5038718;28;20411;-71
2022/09/02 03:27:45;;;;;;;1999.90;999.90;;;18.60;55.70;;;;;;5038652;28;20445;-71
2022/09/02 03:30:14;;;;;;;1999.90;999.90;;;18.60;55.20;;;;;;5038191;28;20445;-71
2022/09/02 03:32:41;;;;;;;1999.90;999.90;;;18.60;55.70;;;;;;5038077;28;20405;-71
2022/09/02 03:35:09;;;;;;;1999.90;999.90;;;18.60;56.20;;;;;;5038179;28;20398;-71
2022/09/02 03:37:35;;;;;;;1999.90;999.90;;;18.50;57.10;;;;;;5037304;28;20444;-71
2022/09/02 03:40:04;;;;;;;1999.90;999.90;;;18.50;57.50;;;;;;5038106;28;20468;-71
2022/09/02 03:42:30;;;;;;;1999.90;999.90;;;18.40;57.80;;;;;;5038133;28;20908;-71
2022/09/02 03:44:55;;;;;;;1999.90;999.90;;;18.40;58.40;;;;;;5038194;28;20412;-71
2022/09/02 03:47:22;;;;;;;1999.90;999.90;;;18.40;58.90;;;;;;5038898;28;20195;-71
2022/09/02 03:49:48;;;;;;;1999.90;999.90;;;18.40;59.20;;;;;;5038293;28;20688;-71
2022/09/02 03:52:14;;;;;;;1999.90;999.90;;;18.30;60.10;;;;;;5037779;28;20492;-71
2022/09/02 03:54:39;;;;;;;1999.90;999.90;;;18.30;61.20;;;;;;5037081;28;20165;-71
2022/09/02 03:57:05;;;;;;;1999.90;999.90;;;18.30;62.10;;;;;;5037292;28;20251;-71
2022/09/02 03:59:31;;;;;;;1999.90;999.90;;;18.20;62.60;;;;;;5038020;28;20182;-71
2022/09/02 04:01:56;;;;;;;1999.90;999.90;;;18.20;63.50;;;;;;5038281;28;20184;-71
2022/09/02 04:04:22;;;;;;;1999.90;999.90;;;18.20;64.20;;;;;;5020784;28;20275;-71
2022/09/02 04:06:48;;;;;;;1999.90;999.90;;;18.20;65.70;;;;;;5037923;28;20636;-71
2022/09/02 04:09:14;;;;;;;1999.90;999.90;;;18.20;66.20;;;;;;5037632;28;20455;-71
2022/09/02 04:11:42;;;;;;;1999.90;999.90;;;18.20;66.70;;;;;;5039109;28;20260;-71
2022/09/02 04:14:08;;;;;;;1999.90;999.90;;;18.10;67.80;;;;;;5039681;28;20408;-71
2022/09/02 04:16:34;;;;;;;1999.90;999.90;;;18.10;68.60;;;;;;5041344;28;20411;-71
2022/09/02 04:19:01;;;;;;;1999.90;999.90;;;18.10;69.60;;;;;;5041484;28;20434;-71
2022/09/02 04:21:28;;;;;;;1999.90;999.90;;;18.00;70.40;;;;;;5041334;28;20407;-71
2022/09/02 04:23:55;;;;;;;1999.90;999.90;;;18.00;71.70;;;;;;5041411;28;20405;-71
2022/09/02 04:26:21;;;;;;;1999.90;999.90;;;18.00;73.10;;;;;;5042004;28;20771;-71
2022/09/02 04:28:48;;;;;;;1999.90;999.90;;;18.00;74.10;;;;;;5041301;28;20531;-71
2022/09/02 04:31:17;;;;;;;1999.90;999.90;;;18.00;75.10;;;;;;5041489;28;20787;-71
2022/09/02 04:33:42;;;;;;;1999.90;999.90;;;18.00;76.30;;;;;;5042654;28;20431;-71
2022/09/02 04:36:11;;;;;;;1999.90;999.90;;;18.00;77.20;;;;;;5041542;28;20402;-71
2022/09/02 04:38:36;;;;;;;1999.90;999.90;;;17.90;78.20;;;;;;5041267;28;20249;-71
2022/09/02 04:41:11;;;;;;;1999.90;999.90;;;17.90;78.80;;;;;;5042649;28;20412;-71
2022/09/02 04:43:37;;;;;;;1999.90;999.90;;;17.90;79.90;;;;;;5041729;28;20178;-71
2022/09/02 04:46:05;;;;;;;1999.90;999.90;;;18.00;80.70;;;;;;5041455;28;20436;-71
2022/09/02 04:48:31;;;;;;;1999.90;999.90;;;17.90;81.20;;;;;;5041760;28;20440;-71
2022/09/02 04:50:57;;;;;;;1999.90;999.90;;;17.90;82.30;;;;;;5040105;28;20551;-71
2022/09/02 04:53:23;;;;;;;1999.90;999.90;;;17.90;83.60;;;;;;5040419;28;20462;-72
2022/09/02 04:55:48;;;;;;;1999.90;999.90;;;17.90;85.20;;;;;;5040623;28;20179;-71
2022/09/02 04:58:15;;;;;;;1999.90;999.90;;;17.80;85.80;;;;;;5040086;28;20215;-71
2022/09/02 05:00:41;;;;;;;1999.90;999.90;;;17.90;87.80;;;;;;5040904;28;20179;-71
2022/09/02 05:03:07;;;;;;;1999.90;999.90;;;17.90;88.10;;;;;;5040907;28;20413;-71
2022/09/02 05:05:34;;;;;;;1999.90;999.90;;;17.90;89.10;;;;;;5040091;28;20428;-71
2022/09/02 05:08:00;;;;;;;1999.90;999.90;;;17.90;89.70;;;;;;5039808;28;20256;-71
2022/09/02 05:10:27;;;;;;;1999.90;999.90;;;17.90;90.20;;;;;;5041437;28;20459;-71
2022/09/02 05:12:54;;;;;;;1999.90;999.90;;;17.90;90.60;;;;;;5040939;28;20415;-71
2022/09/02 05:15:19;;;;;;;1999.90;999.90;;;17.90;90.90;;;;;;5041065;28;20405;-71
2022/09/02 05:17:45;;;;;;;1999.90;999.90;;;18.00;91.30;;;;;;5040627;28;20424;-71
2022/09/02 05:20:12;;;;;;;1999.90;999.90;;;18.00;91.90;;;;;;5040718;28;20180;-71
2022/09/02 05:22:37;;;;;;;1999.90;999.90;;;18.10;91.80;;;;;;5040829;28;20583;-71
2022/09/02 05:25:06;;;;;;;1999.90;999.90;;;18.10;92.10;;;;;;5038423;28;20427;-71
2022/09/02 05:27:32;;;;;;;1999.90;999.90;;;18.00;92.40;;;;;;5039917;28;20216;-71
2022/09/02 05:29:58;;;;;;;1999.90;999.90;;;18.10;93.00;;;;;;5039678;28;20450;-71
2022/09/02 05:32:26;;;;;;;1999.90;999.90;;;18.10;93.00;;;;;;5040481;28;20421;-71
2022/09/02 05:34:53;;;;;;;1999.90;999.90;;;18.10;92.90;;;;;;5040160;28;20412;-71
2022/09/02 05:37:18;;;;;;;1999.90;999.90;;;18.10;93.10;;;;;;5039864;28;20488;-71
2022/09/02 05:39:44;;;;;;;1999.90;999.90;;;18.10;93.30;;;;;;5040401;28;20440;-71
2022/09/02 05:42:10;;;;;;;1999.90;999.90;;;18.20;93.80;;;;;;5040545;28;20418;-71
2022/09/02 05:44:37;;;;;;;1999.90;999.90;;;18.20;93.90;;;;;;5040095;28;20237;-71
2022/09/02 05:47:03;;;;;;;1999.90;999.90;;;18.20;94.20;;;;;;5039092;28;20201;-71
2022/09/02 05:49:28;;;;;;;1999.90;999.90;;;18.20;94.80;;;;;;5039666;28;20480;-71
2022/09/02 05:51:57;;;;;;;1999.90;999.90;;;18.30;94.80;;;;;;5039930;28;20630;-71
2022/09/02 05:54:28;;;;;;;1999.90;999.90;;;18.30;94.80;;;;;;5039525;28;20232;-71
2022/09/02 05:56:56;;;;;;;1999.90;999.90;;;18.30;95.20;;;;;;5038527;28;20871;-71
2022/09/02 05:59:24;;;;;;;1999.90;999.90;;;18.40;95.20;;;;;;5038284;28;20902;-71
2022/09/02 06:01:50;;;;;;;1999.90;999.90;;;18.40;95.40;;;;;;5039553;28;20410;-71
2022/09/02 06:04:16;;;;;;;1999.90;999.90;;;18.50;95.60;;;;;;5039274;28;20409;-71
2022/09/02 06:06:42;;;;;;;1999.90;999.90;;;18.50;96.10;;;;;;5038906;28;20413;-71
2022/09/02 06:09:10;;;;;;;1999.90;999.90;;;18.60;96.10;;;;;;5040600;28;20434;-71
2022/09/02 06:11:38;;;;;;;1999.90;999.90;;;18.70;95.80;;;;;;5041286;28;20409;-71
2022/09/02 06:14:06;;;;;;;1999.90;999.90;;;18.70;95.70;;;;;;5040455;28;20410;-71
2022/09/02 06:16:33;;;;;;;1999.90;999.90;;;18.80;95.40;;;;;;5039260;28;20940;-71
2022/09/02 06:18:59;;;;;;;1999.90;999.90;;;18.90;95.30;;;;;;5039785;28;20479;-71
2022/09/02 06:21:24;;;;;;;1999.90;999.90;;;18.90;94.90;;;;;;5039407;28;20406;-71
2022/09/02 06:23:50;;;;;;;1999.90;999.90;;;18.90;95.10;;;;;;5040057;28;20246;-72
2022/09/02 06:26:17;;;;;;;1999.90;999.90;;;19.00;95.00;;;;;;5040314;28;20227;-72
2022/09/02 06:28:43;;;;;;;1999.90;999.90;;;19.10;94.60;;;;;;5039255;28;20211;-72
2022/09/02 06:31:13;;;;;;;1999.90;999.90;;;19.20;94.70;;;;;;5040031;28;20465;-71
2022/09/02 06:33:40;;;;;;;1999.90;999.90;;;19.20;94.10;;;;;;5040953;28;20437;-72
2022/09/02 06:36:10;;;;;;;1999.90;999.90;;;19.30;94.10;;;;;;5040551;28;20482;-71
2022/09/02 06:38:38;;;;;;;1999.90;999.90;;;19.40;93.80;;;;;;5041060;28;20423;-72
2022/09/02 06:41:04;;;;;;;1999.90;999.90;;;19.40;93.10;;;;;;5041379;28;20923;-71
2022/09/02 06:43:30;;;;;;;1999.90;999.90;;;19.50;93.00;;;;;;5041692;28;20411;-72
2022/09/02 06:45:56;;;;;;;1999.90;999.90;;;19.50;92.70;;;;;;5040720;28;20207;-71
2022/09/02 06:48:22;;;;;;;1999.90;999.90;;;19.60;92.50;;;;;;5040715;28;20434;-72
2022/09/02 06:50:47;;;;;;;1999.90;999.90;;;19.50;92.40;;;;;;5041097;28;20450;-71
2022/09/02 06:53:14;;;;;;;1999.90;999.90;;;19.50;92.30;;;;;;5041217;28;20176;-72
2022/09/02 06:55:43;;;;;;;1999.90;999.90;;;19.60;92.70;;;;;;5040564;28;20259;-72
2022/09/02 06:58:10;;;;;;;1999.90;999.90;;;19.60;92.70;;;;;;5040051;28;20426;-72
2022/09/02 07:00:36;;;;;;;1999.90;999.90;;;19.70;92.30;;;;;;5040126;28;20392;-72
2022/09/02 07:05:47;;;;;;;1999.90;999.90;;;19.80;92.40;;;;;;5041819;28;20782;-71
2022/09/02 07:08:12;;;;;;;1999.90;999.90;;;20.00;92.30;;;;;;5041008;28;20630;-72
2022/09/02 07:10:39;;;;;;;1999.90;999.90;;;20.10;91.10;;;;;;5039501;28;20495;-72
2022/09/02 07:13:07;;;;;;;1999.90;999.90;;;20.20;90.80;;;;;;5041377;28;20176;-71
2022/09/02 07:15:34;;;;;;;1999.90;999.90;;;20.40;90.70;;;;;;5039673;28;20395;-71
2022/09/02 07:18:00;;;;;;;1999.90;999.90;;;20.40;89.50;;;;;;5040437;28;20831;-71
2022/09/02 07:20:26;;;;;;;1999.90;999.90;;;20.50;87.40;;;;;;5040066;28;20417;-71
2022/09/02 07:22:52;;;;;;;1999.90;999.90;;;20.50;86.50;;;;;;5040061;28;20407;-71
2022/09/02 07:25:18;;;;;;;1999.90;999.90;;;20.50;86.20;;;;;;5039900;28;20801;-71
2022/09/02 07:27:44;;;;;;;1999.90;999.90;;;20.60;85.80;;;;;;5040194;28;20209;-72
2022/09/02 07:30:11;;;;;;;1999.90;999.90;;;20.50;85.00;;;;;;5041019;28;20486;-72
2022/09/02 07:32:38;;;;;;;1999.90;999.90;;;20.60;85.60;;;;;;5040476;28;20405;-71
2022/09/02 07:35:06;;;;;;;1999.90;999.90;;;20.60;85.90;;;;;;5040230;28;20407;-71
2022/09/02 07:37:33;;;;;;;1999.90;999.90;;;20.70;85.00;;;;;;5039295;28;20941;-71
2022/09/02 07:40:00;;;;;;;1999.90;999.90;;;20.70;84.00;;;;;;5039462;28;20765;-72
2022/09/02 07:42:26;;;;;;;1999.90;999.90;;;20.70;84.70;;;;;;5039891;28;20432;-72
2022/09/02 07:44:52;;;;;;;1999.90;999.90;;;20.70;85.90;;;;;;5021313;28;20420;-71
2022/09/02 07:47:18;;;;;;;1999.90;999.90;;;20.80;85.10;;;;;;5038909;28;20440;-72
2022/09/02 07:49:43;;;;;;;1999.90;999.90;;;20.80;83.90;;;;;;5042600;28;20188;-71
2022/09/02 07:52:09;;;;;;;1999.90;999.90;;;20.80;83.50;;;;;;5043893;28;20170;-72
2022/09/02 07:54:35;;;;;;;1999.90;999.90;;;20.90;83.30;;;;;;5043608;28;20184;-71
2022/09/02 07:57:00;;;;;;;1999.90;999.90;;;21.00;83.40;;;;;;5041850;28;20178;-71
2022/09/02 07:59:26;;;;;;;1999.90;999.90;;;21.00;82.40;;;;;;5042960;28;20174;-71
2022/09/02 08:01:52;;;;;;;1999.90;999.90;;;21.00;82.90;;;;;;5044150;28;20178;-72
2022/09/02 08:04:22;;;;;;;1999.90;999.90;;;21.10;82.90;;;;;;5043221;28;20540;-72
2022/09/02 08:06:49;;;;;;;1999.90;999.90;;;21.20;83.20;;;;;;5043233;28;20412;-71
2022/09/02 08:09:15;;;;;;;1999.90;999.90;;;21.30;82.70;;;;;;5025411;28;20442;-72
2022/09/02 08:11:45;;;;;;;1999.90;999.90;;;21.40;80.40;;;;;;5042699;28;21040;-71
2022/09/02 08:14:13;;;;;;;1999.90;999.90;;;21.50;80.50;;;;;;5043527;28;20492;-72
2022/09/02 08:16:39;;;;;;;1999.90;999.90;;;21.50;80.30;;;;;;5043367;28;20412;-71
2022/09/02 08:19:06;;;;;;;1999.90;999.90;;;21.70;80.90;;;;;;5042383;28;20808;-72
2022/09/02 08:21:32;;;;;;;1999.90;999.90;;;21.80;78.90;;;;;;5042027;28;20491;-71
2022/09/02 08:23:59;;;;;;;1999.90;999.90;;;22.00;78.60;;;;;;5041971;28;20428;-71
2022/09/02 08:26:26;;;;;;;1999.90;999.90;;;22.00;76.80;;;;;;5042247;28;20235;-71
2022/09/02 08:28:52;;;;;;;1999.90;999.90;;;22.10;75.90;;;;;;5041563;28;20818;-72
2022/09/02 08:31:17;;;;;;;1999.90;999.90;;;22.20;74.20;;;;;;5041982;28;20427;-72
2022/09/02 08:33:43;;;;;;;1999.90;999.90;;;22.40;74.20;;;;;;5042098;28;20184;-71
2022/09/02 08:36:10;;;;;;;1999.90;999.90;;;22.40;71.80;;;;;;5040011;28;20545;-71
2022/09/02 08:38:36;;;;;;;1999.90;999.90;;;22.50;70.60;;;;;;5035608;28;20629;-72
2022/09/02 08:41:12;;;;;;;1999.90;999.90;;;22.60;70.50;;;;;;5034425;28;20492;-71
2022/09/02 08:43:41;;;;;;;1999.90;999.90;;;22.70;69.00;;;;;;5038851;28;20387;-68
2022/09/02 08:46:11;;;;;;;1999.90;999.90;;;22.70;67.20;;;;;;5046237;28;20414;-67
2022/09/02 08:49:01;;;;;;;1999.90;999.90;;;22.80;68.40;;;;;;5027202;28;20475;-67
2022/09/02 08:51:33;;;;;;;1999.90;999.90;;;22.80;69.30;;;;;;5048619;28;20422;-69
2022/09/02 08:54:02;;;;;;;1999.90;999.90;;;22.90;66.30;;;;;;5049791;28;20410;-69
2022/09/02 08:56:30;;;;;;;1999.90;999.90;;;23.10;66.10;;;;;;5044511;28;20410;-68
2022/09/02 08:58:56;;;;;;;1999.90;999.90;;;23.10;66.60;;;;;;5041057;28;20513;-72
2022/09/02 09:01:46;;;;;;;1999.90;999.90;;;23.10;66.10;;;;;;5045185;28;20488;-72
2022/09/02 09:04:19;;;;;;;1999.90;999.90;;;23.30;64.60;;;;;;5045519;28;20411;-72
2022/09/02 09:07:12;;;;;;;1999.90;999.90;;;23.40;63.40;;;;;;5044427;28;20866;-71
2022/09/02 09:09:37;;;;;;;1999.90;999.90;;;23.60;61.60;;;;;;5044632;28;20462;-71
2022/09/02 09:12:28;;;;;;;1999.90;999.90;;;23.70;60.80;;;;;;5044731;28;20483;-71
2022/09/02 09:15:01;;;;;;;1999.90;999.90;;;23.70;60.90;;;;;;5045609;28;20161;-72
2022/09/02 09:17:40;;;;;;;1999.90;999.90;;;23.90;60.10;;;;;;5043962;28;20801;-71
2022/09/02 09:20:14;;;;;;;1999.90;999.90;;;24.00;58.90;;;;;;5044063;28;20752;-71
2022/09/02 09:22:41;;;;;;;1999.90;999.90;;;24.00;59.20;;;;;;5041479;28;20409;-71
2022/09/02 09:25:14;;;;;;;1999.90;999.90;;;24.10;57.60;;;;;;5041615;28;20493;-71
2022/09/02 09:27:40;;;;;;;1999.90;999.90;;;24.20;57.40;;;;;;5042007;28;20418;-71
2022/09/02 09:30:08;;;;;;;1999.90;999.90;;;24.40;57.00;;;;;;5042365;28;20450;-71
2022/09/02 09:32:39;;;;;;;1999.90;999.90;;;24.50;55.60;;;;;;5042521;28;20402;-72
2022/09/02 09:35:10;;;;;;;1999.90;999.90;;;24.50;54.70;;;;;;5079396;22;20487;-66
2022/09/02 09:37:39;;;;;;;1999.90;999.90;;;24.60;54.00;;;;;;5015529;28;20390;-66
2022/09/02 09:40:30;;;;;;;1999.90;999.90;;;24.70;52.80;;;;;;5033676;28;20448;-66
2022/09/02 09:43:04;;;;;;;1999.90;999.90;;;24.80;50.80;;;;;;5033186;28;20400;-65
2022/09/02 09:45:33;;;;;;;1999.90;999.90;;;24.90;50.30;;;;;;5033304;28;20845;-66
2022/09/02 09:48:28;;;;;;;1999.90;999.90;;;25.00;50.20;;;;;;5033190;28;20611;-66
2022/09/02 09:50:54;;;;;;;1999.90;999.90;;;25.10;49.50;;;;;;5033238;28;20998;-66
2022/09/02 09:53:31;;;;;;;1999.90;999.90;;;25.20;48.20;;;;;;5033087;28;20411;-66
2022/09/02 09:56:06;;;;;;;1999.90;999.90;;;25.40;45.90;;;;;;5032366;28;20181;-67
2022/09/02 09:58:40;;;;;;;1999.90;999.90;;;25.40;43.40;;;;;;5033253;28;20882;-66
2022/09/02 10:01:30;;;;;;;1999.90;999.90;;;25.40;41.50;;;;;;5033094;28;20411;-66
2022/09/02 10:04:07;;;;;;;1999.90;999.90;;;25.40;41.30;;;;;;5033253;28;20925;-66
2022/09/02 10:06:33;;;;;;;1999.90;999.90;;;25.40;41.50;;;;;;5032593;28;20404;-65
2022/09/02 10:09:23;;;;;;;1999.90;999.90;;;25.60;39.60;;;;;;5032802;28;20875;-66
2022/09/02 10:12:10;;;;;;;1999.90;999.90;;;25.70;38.60;;;;;;5031762;28;20279;-66
2022/09/02 10:14:47;;;;;;;1999.90;999.90;;;25.80;37.70;;;;;;5032664;28;20417;-66
2022/09/02 10:17:39;;;;;;;1999.90;999.90;;;25.80;36.20;;;;;;5029477;28;20450;-66
2022/09/02 10:20:40;;;;;;;1999.90;999.90;;;25.90;35.40;;;;;;5032407;28;20382;-65
2022/09/02 10:23:15;;;;;;;1999.90;999.90;;;26.00;33.80;;;;;;5031710;28;20785;-66
2022/09/02 10:26:13;;;;;;;1999.90;999.90;;;26.20;32.60;;;;;;5032217;28;20447;-67
2022/09/02 10:29:07;;;;;;;1999.90;999.90;;;26.40;31.50;;;;;;5032047;28;20434;-66
2022/09/02 10:31:51;;;;;;;1999.90;999.90;;;26.50;29.50;;;;;;5033604;28;20916;-65
2022/09/02 10:34:23;;;;;;;1999.90;999.90;;;26.60;28.90;;;;;;5036027;28;21019;-65
2022/09/02 10:37:32;;;;;;;1999.90;999.90;;;26.70;28.60;;;;;;5036655;28;20444;-65
2022/09/02 10:40:08;;;;;;;1999.90;999.90;;;26.80;26.60;;;;;;5039155;28;20467;-66
2022/09/02 10:42:56;;;;;;;1999.90;999.90;;;27.00;26.50;;;;;;5038486;28;20373;-65
2022/09/02 10:45:45;;;;;;;1999.90;999.90;;;27.10;25.50;;;;;;5043807;28;20419;-66
2022/09/02 10:48:31;;;;;;;1999.90;999.90;;;27.30;24.30;;;;;;5037259;28;20399;-67
2022/09/02 10:51:08;;;;;;;1999.90;999.90;;;27.40;22.80;;;;;;5037341;28;20541;-67
2022/09/02 10:53:52;;;;;;;1999.90;999.90;;;27.50;21.20;;;;;;5036298;28;20377;-66
2022/09/02 10:56:25;;;;;;;1999.90;999.90;;;27.40;21.20;;;;;;5038476;28;20408;-66
2022/09/02 10:59:18;;;;;;;1999.90;999.90;;;27.40;18.40;;;;;;5037558;28;20462;-65
2022/09/02 11:01:50;;;;;;;1999.90;999.90;;;27.20;17.20;;;;;;5037496;28;20410;-66
2022/09/02 11:04:38;;;;;;;1999.90;999.90;;;27.10;17.10;;;;;;5035124;28;20381;-65
2022/09/02 11:07:09;;;;;;;1999.90;999.90;;;27.00;18.30;;;;;;5035422;28;20412;-65
2022/09/02 11:09:47;;;;;;;1999.90;999.90;;;27.10;18.30;;;;;;5034780;28;20475;-67
2022/09/02 11:12:26;;;;;;;1999.90;999.90;;;27.20;18.80;;;;;;5036045;28;20460;-67
2022/09/02 11:14:54;;;;;;;1999.90;999.90;;;27.40;18.20;;;;;;5035631;28;20486;-66
2022/09/02 11:17:31;;;;;;;1999.90;999.90;;;27.50;18.00;;;;;;5036122;28;20384;-67
2022/09/02 11:20:18;;;;;;;1999.90;999.90;;;27.60;17.90;;;;;;5036583;28;20778;-66
2022/09/02 11:23:05;;;;;;;1999.90;999.90;;;27.70;18.60;;;;;;5038725;28;20405;-66
2022/09/02 11:25:41;;;;;;;1999.90;999.90;;;27.80;17.30;;;;;;5041117;28;20430;-65
2022/09/02 11:28:22;;;;;;;1999.90;999.90;;;27.70;18.10;;;;;;5042737;28;20452;-67
2022/09/02 11:31:11;;;;;;;1999.90;999.90;;;27.90;17.40;;;;;;5041239;28;20488;-65
2022/09/02 11:33:55;;;;;;;1999.90;999.90;;;28.10;17.90;;;;;;5043604;28;20437;-66
2022/09/02 11:36:20;;;;;;;1999.90;999.90;;;28.40;16.90;;;;;;5041828;28;20966;-65
2022/09/02 11:39:09;;;;;;;1999.90;999.90;;;28.50;16.60;;;;;;5041526;28;20407;-66
2022/09/02 11:41:59;;;;;;;1999.90;999.90;;;28.60;16.70;;;;;;5042039;28;20168;-66
2022/09/02 11:44:27;;;;;;;1999.90;999.90;;;28.70;16.90;;;;;;5042196;28;20398;-65
2022/09/02 11:47:21;;;;;;;1999.90;999.90;;;28.80;16.40;;;;;;5041641;28;20800;-67
2022/09/02 11:49:49;;;;;;;1999.90;999.90;;;28.90;15.60;;;;;;5041029;28;20454;-66
2022/09/02 11:52:40;;;;;;;1999.90;999.90;;;29.40;15.60;;;;;;5042887;28;20414;-67
2022/09/02 11:55:12;;;;;;;1999.90;999.90;;;30.30;14.90;;;;;;5044699;28;20415;-67
2022/09/02 11:57:40;;;;;;;1999.90;999.90;;;31.30;14.40;;;;;;5044694;28;20449;-67
2022/09/02 12:00:12;;;;;;;1999.90;999.90;;;32.10;12.50;;;;;;5045151;28;20403;-66
2022/09/02 12:02:42;;;;;;;1999.90;999.90;;;32.90;11.90;;;;;;5044736;28;20410;-66
2022/09/02 12:05:30;;;;;;;1999.90;999.90;;;33.50;10.50;;;;;;5045270;28;20486;-66
2022/09/02 12:07:58;;;;;;;1999.90;999.90;;;34.00;9.00;;;;;;5043728;28;20458;-66
2022/09/02 12:10:46;;;;;;;1999.90;999.90;;;34.10;8.20;;;;;;5044634;28;20454;-66
2022/09/02 12:13:30;;;;;;;1999.90;999.90;;;34.60;8.20;;;;;;5044511;28;20414;-67
2022/09/02 12:16:14;;;;;;;1999.90;999.90;;;34.90;6.70;;;;;;5043681;28;20418;-65